createdAt,value
2018-05-14T00:01:56.737Z,15.70
2018-05-14T00:04:33.945Z,15.70
2018-05-14T00:07:11.025Z,15.60
2018-05-14T00:09:47.656Z,15.60
2018-05-14T00:12:24.777Z,15.60
2018-05-14T00:15:01.554Z,15.60
2018-05-14T00:17:38.580Z,15.50
2018-05-14T00:20:17.235Z,15.50
2018-05-14T00:22:54.665Z,15.40
2018-05-14T00:25:31.637Z,15.40
2018-05-14T00:28:08.365Z,15.40
2018-05-14T00:30:45.493Z,15.30
2018-05-14T00:33:22.627Z,15.30
2018-05-14T00:35:59.929Z,15.20
2018-05-14T00:38:39.309Z,15.30
2018-05-14T00:41:16.931Z,15.20
2018-05-14T00:43:55.477Z,15.30
2018-05-14T00:46:34.716Z,15.20
2018-05-14T00:49:13.086Z,15.20
2018-05-14T00:51:50.659Z,15.20
2018-05-14T00:54:27.801Z,15.10
2018-05-14T00:57:04.911Z,15.10
2018-05-14T00:59:41.175Z,15.20
2018-05-14T01:02:19.081Z,15.00
2018-05-14T01:04:55.833Z,15.00
2018-05-14T01:07:32.245Z,15.10
2018-05-14T01:10:10.161Z,15.10
2018-05-14T01:12:47.605Z,15.20
2018-05-14T01:15:25.378Z,15.10
2018-05-14T01:18:03.464Z,15.00
2018-05-14T01:20:41.364Z,14.90
2018-05-14T01:23:18.778Z,14.80
2018-05-14T01:25:56.350Z,14.80
2018-05-14T01:28:32.773Z,14.70
2018-05-14T01:31:11.039Z,14.70
2018-05-14T01:33:48.112Z,14.70
2018-05-14T01:36:25.498Z,14.70
2018-05-14T01:39:02.014Z,14.60
2018-05-14T01:41:39.685Z,14.60
2018-05-14T01:44:17.053Z,14.50
2018-05-14T01:46:55.581Z,14.40
2018-05-14T01:49:33.157Z,14.30
2018-05-14T01:52:11.372Z,14.20
2018-05-14T01:54:49.852Z,14.10
2018-05-14T01:57:28.112Z,14.10
2018-05-14T02:00:03.745Z,14.00
2018-05-14T02:02:40.071Z,14.00
2018-05-14T02:05:17.827Z,13.90
2018-05-14T02:07:56.010Z,13.90
2018-05-14T02:10:32.994Z,13.90
2018-05-14T02:13:09.519Z,13.90
2018-05-14T02:15:46.157Z,13.90
2018-05-14T02:18:23.076Z,13.90
2018-05-14T02:21:01.992Z,13.90
2018-05-14T02:23:39.175Z,13.80
2018-05-14T02:26:17.196Z,13.80
2018-05-14T02:28:54.303Z,13.90
2018-05-14T02:31:32.734Z,13.90
2018-05-14T02:34:09.505Z,13.90
2018-05-14T02:36:47.329Z,13.90
2018-05-14T02:39:25.148Z,14.00
2018-05-14T02:42:04.265Z,14.00
2018-05-14T02:44:40.512Z,14.00
2018-05-14T02:47:17.248Z,14.00
2018-05-14T02:49:53.535Z,14.00
2018-05-14T02:52:29.917Z,14.00
2018-05-14T02:55:05.976Z,13.90
2018-05-14T02:57:43.045Z,13.80
2018-05-14T03:00:19.908Z,13.80
2018-05-14T03:02:56.691Z,13.80
2018-05-14T03:05:33.561Z,13.70
2018-05-14T03:08:11.359Z,13.60
2018-05-14T03:10:48.747Z,13.50
2018-05-14T03:13:26.409Z,13.40
2018-05-14T03:16:03.873Z,13.40
2018-05-14T03:18:40.400Z,13.40
2018-05-14T03:21:17.594Z,13.30
2018-05-14T03:23:55.412Z,13.20
2018-05-14T03:26:33.454Z,13.20
2018-05-14T03:29:11.528Z,13.20
2018-05-14T03:31:48.588Z,13.20
2018-05-14T03:34:26.477Z,13.10
2018-05-14T03:37:03.970Z,13.20
2018-05-14T03:39:41.771Z,13.30
2018-05-14T03:42:19.939Z,13.30
2018-05-14T03:44:56.781Z,13.40
2018-05-14T03:47:34.780Z,13.30
2018-05-14T03:50:12.111Z,13.20
2018-05-14T03:52:49.969Z,13.20
2018-05-14T03:55:26.168Z,13.20
2018-05-14T03:58:04.631Z,13.20
2018-05-14T04:00:58.350Z,13.30
2018-05-14T04:03:52.833Z,13.30
2018-05-14T04:06:44.433Z,13.40
2018-05-14T04:09:21.708Z,13.40
2018-05-14T04:11:58.212Z,13.50
2018-05-14T04:14:34.775Z,13.60
2018-05-14T04:17:13.802Z,13.50
2018-05-14T04:19:51.061Z,13.60
2018-05-14T04:22:29.855Z,13.70
2018-05-14T04:25:07.445Z,13.70
2018-05-14T04:27:44.137Z,13.80
2018-05-14T04:30:21.078Z,13.80
2018-05-14T04:32:57.874Z,13.90
2018-05-14T04:35:36.910Z,14.00
2018-05-14T04:38:15.270Z,14.20
2018-05-14T04:40:52.406Z,14.30
2018-05-14T04:43:31.101Z,14.40
2018-05-14T04:46:08.236Z,14.40
2018-05-14T04:48:45.438Z,14.50
2018-05-14T04:51:22.485Z,14.70
2018-05-14T04:53:59.817Z,14.90
2018-05-14T04:56:36.752Z,15.00
2018-05-14T04:59:13.668Z,15.10
2018-05-14T05:01:50.740Z,15.20
2018-05-14T05:04:27.996Z,15.30
2018-05-14T05:07:05.919Z,15.30
2018-05-14T05:09:42.904Z,15.30
2018-05-14T05:12:19.336Z,15.40
2018-05-14T05:14:56.539Z,15.40
2018-05-14T05:17:33.334Z,15.50
2018-05-14T05:20:11.542Z,16.10
2018-05-14T05:22:48.800Z,16.10
2018-05-14T05:25:25.390Z,16.30
2018-05-14T05:28:02.544Z,16.60
2018-05-14T05:30:41.913Z,16.60
2018-05-14T05:33:18.667Z,16.60
2018-05-14T05:35:56.693Z,16.40
2018-05-14T05:38:34.508Z,16.30
2018-05-14T05:41:12.804Z,16.40
2018-05-14T05:43:50.369Z,16.50
2018-05-14T05:46:27.664Z,16.60
2018-05-14T05:49:04.619Z,16.50
2018-05-14T05:51:43.162Z,16.50
2018-05-14T05:54:20.289Z,16.60
2018-05-14T05:56:58.084Z,16.80
2018-05-14T05:59:36.592Z,16.80
2018-05-14T06:02:12.736Z,16.90
2018-05-14T06:04:50.209Z,17.10
2018-05-14T06:07:27.512Z,17.40
2018-05-14T06:10:04.228Z,17.50
2018-05-14T06:12:41.389Z,17.50
2018-05-14T06:15:18.113Z,17.70
2018-05-14T06:17:56.692Z,17.70
2018-05-14T06:20:33.141Z,17.90
2018-05-14T06:23:11.557Z,18.00
2018-05-14T06:25:49.748Z,18.20
2018-05-14T06:28:27.044Z,18.30
2018-05-14T06:31:05.256Z,18.40
2018-05-14T06:33:42.236Z,18.40
2018-05-14T06:36:19.864Z,18.50
2018-05-14T06:38:57.768Z,18.60
2018-05-14T06:41:34.731Z,18.60
2018-05-14T06:44:11.183Z,18.80
2018-05-14T06:46:47.749Z,19.00
2018-05-14T06:49:25.327Z,19.20
2018-05-14T06:52:03.645Z,19.20
2018-05-14T06:54:39.784Z,19.30
2018-05-14T06:57:17.824Z,19.60
2018-05-14T06:59:55.965Z,19.60
2018-05-14T07:02:32.705Z,19.60
2018-05-14T07:05:08.864Z,19.90
2018-05-14T07:07:46.392Z,20.10
2018-05-14T07:10:24.858Z,20.10
2018-05-14T07:13:02.127Z,20.60
2018-05-14T07:15:40.402Z,20.60
2018-05-14T07:18:17.091Z,21.00
2018-05-14T07:20:53.707Z,21.20
2018-05-14T07:23:31.034Z,21.30
2018-05-14T07:26:08.661Z,21.50
2018-05-14T07:28:45.607Z,21.70
2018-05-14T07:31:23.894Z,21.90
2018-05-14T07:34:01.061Z,22.20
2018-05-14T07:36:38.669Z,22.30
2018-05-14T07:39:17.016Z,22.70
2018-05-14T07:41:53.745Z,23.20
2018-05-14T07:44:30.405Z,23.50
2018-05-14T07:47:06.794Z,24.00
2018-05-14T07:49:44.489Z,24.40
2018-05-14T07:52:22.075Z,25.30
2018-05-14T07:54:59.216Z,27.00
2018-05-14T07:57:36.099Z,28.60
2018-05-14T08:00:13.977Z,30.30
2018-05-14T08:02:52.840Z,31.30
2018-05-14T08:05:30.055Z,31.70
2018-05-14T08:08:08.709Z,32.60
2018-05-14T08:10:45.828Z,33.30
2018-05-14T08:13:23.737Z,34.10
2018-05-14T08:15:59.969Z,34.50
2018-05-14T08:18:36.704Z,33.90
2018-05-14T08:21:13.732Z,33.90
2018-05-14T08:23:50.420Z,34.00
2018-05-14T08:26:27.909Z,34.80
2018-05-14T08:29:05.646Z,34.70
2018-05-14T08:31:42.621Z,34.50
2018-05-14T08:34:19.551Z,34.40
2018-05-14T08:36:57.301Z,34.20
2018-05-14T08:39:34.464Z,34.00
2018-05-14T08:42:11.608Z,34.20
2018-05-14T08:44:49.419Z,33.50
2018-05-14T08:47:26.647Z,33.10
2018-05-14T08:50:03.588Z,33.80
2018-05-14T08:52:40.256Z,33.70
2018-05-14T08:55:17.646Z,34.20
2018-05-14T08:57:55.648Z,34.50
2018-05-14T09:00:32.464Z,34.20
2018-05-14T09:03:09.448Z,34.10
2018-05-14T09:05:46.425Z,34.00
2018-05-14T09:08:23.961Z,34.30
2018-05-14T09:11:02.089Z,34.10
2018-05-14T09:13:40.430Z,34.00
2018-05-14T09:16:17.106Z,33.10
2018-05-14T09:18:54.717Z,32.70
2018-05-14T09:21:32.279Z,33.00
2018-05-14T09:24:09.634Z,32.90
2018-05-14T09:26:47.435Z,32.70
2018-05-14T09:29:24.448Z,33.10
2018-05-14T09:32:01.421Z,33.70
2018-05-14T09:34:39.468Z,33.60
2018-05-14T09:37:16.956Z,33.60
2018-05-14T09:39:52.957Z,33.60
2018-05-14T09:42:29.641Z,33.10
2018-05-14T09:45:07.368Z,32.80
2018-05-14T09:47:43.929Z,32.80
2018-05-14T09:50:20.309Z,33.80
2018-05-14T09:52:57.157Z,34.50
2018-05-14T09:55:34.261Z,34.60
2018-05-14T09:58:12.134Z,34.60
2018-05-14T10:00:48.055Z,34.60
2018-05-14T10:03:24.442Z,34.60
2018-05-14T10:06:00.857Z,34.90
2018-05-14T10:08:38.642Z,34.90
2018-05-14T10:11:15.925Z,35.60
2018-05-14T10:13:54.537Z,35.50
2018-05-14T10:16:32.865Z,34.90
2018-05-14T10:19:10.069Z,35.00
2018-05-14T10:21:47.753Z,34.80
2018-05-14T10:24:24.650Z,34.40
2018-05-14T10:27:01.591Z,34.30
2018-05-14T10:29:40.183Z,33.40
2018-05-14T10:32:18.536Z,32.50
2018-05-14T10:34:56.737Z,32.40
2018-05-14T10:37:33.363Z,31.70
2018-05-14T10:40:09.982Z,31.80
2018-05-14T10:42:47.571Z,32.80
2018-05-14T10:45:23.991Z,33.50
2018-05-14T10:48:01.522Z,34.00
2018-05-14T10:50:39.090Z,34.70
2018-05-14T10:53:15.782Z,34.90
2018-05-14T10:55:52.761Z,35.10
2018-05-14T10:58:30.669Z,34.60
2018-05-14T11:01:07.929Z,34.10
2018-05-14T11:03:46.526Z,34.10
2018-05-14T11:06:23.141Z,34.30
2018-05-14T11:09:00.125Z,33.80
2018-05-14T11:11:37.412Z,33.80
2018-05-14T11:14:13.564Z,34.20
2018-05-14T11:16:50.920Z,34.30
2018-05-14T11:19:28.965Z,34.60
2018-05-14T11:22:05.941Z,34.50
2018-05-14T11:24:43.244Z,34.50
2018-05-14T11:27:20.047Z,34.10
2018-05-14T11:29:56.882Z,34.20
2018-05-14T11:32:33.883Z,34.40
2018-05-14T11:35:11.869Z,34.50
2018-05-14T11:37:49.984Z,34.50
2018-05-14T11:40:26.186Z,33.90
2018-05-14T11:43:02.916Z,33.80
2018-05-14T11:45:40.122Z,33.80
2018-05-14T11:48:16.656Z,34.00
2018-05-14T11:50:53.739Z,34.30
2018-05-14T11:53:31.238Z,33.80
2018-05-14T11:56:08.633Z,34.20
2018-05-14T11:58:46.424Z,33.60
2018-05-14T12:01:25.674Z,33.20
2018-05-14T12:04:02.681Z,33.10
2018-05-14T12:06:39.821Z,33.10
2018-05-14T12:09:16.269Z,33.00
2018-05-14T12:11:55.450Z,33.10
2018-05-14T12:14:33.012Z,33.60
2018-05-14T12:17:10.509Z,34.30
2018-05-14T12:19:47.587Z,34.50
2018-05-14T12:22:24.791Z,33.90
2018-05-14T12:25:02.305Z,33.40
2018-05-14T12:27:38.977Z,33.50
2018-05-14T12:30:16.609Z,33.70
2018-05-14T12:32:53.113Z,33.70
2018-05-14T12:35:29.349Z,33.70
2018-05-14T12:38:05.283Z,33.10
2018-05-14T12:40:42.751Z,33.10
2018-05-14T12:43:18.716Z,33.40
2018-05-14T12:45:56.332Z,33.20
2018-05-14T12:48:34.278Z,32.20
2018-05-14T12:51:11.840Z,31.80
2018-05-14T12:53:49.757Z,31.90
2018-05-14T12:56:27.033Z,32.10
2018-05-14T12:59:04.227Z,32.20
2018-05-14T13:01:41.927Z,32.20
2018-05-14T13:04:18.609Z,32.50
2018-05-14T13:06:55.663Z,32.70
2018-05-14T13:09:34.313Z,31.80
2018-05-14T13:12:12.317Z,31.80
2018-05-14T13:14:49.279Z,32.30
2018-05-14T13:17:25.852Z,32.10
2018-05-14T13:20:03.509Z,31.70
2018-05-14T13:22:40.614Z,31.80
2018-05-14T13:25:18.396Z,31.50
2018-05-14T13:27:55.722Z,31.30
2018-05-14T13:30:33.409Z,31.20
2018-05-14T13:33:10.316Z,30.90
2018-05-14T13:35:47.777Z,30.50
2018-05-14T13:38:24.072Z,30.60
2018-05-14T13:41:02.991Z,30.60
2018-05-14T13:43:39.113Z,30.00
2018-05-14T13:46:17.025Z,30.50
2018-05-14T13:48:55.329Z,30.20
2018-05-14T13:51:32.703Z,30.00
2018-05-14T13:54:10.430Z,30.00
2018-05-14T13:56:46.757Z,30.30
2018-05-14T13:59:24.997Z,30.60
2018-05-14T14:02:02.053Z,30.20
2018-05-14T14:04:39.860Z,29.70
2018-05-14T14:07:17.476Z,29.50
2018-05-14T14:09:54.153Z,29.40
2018-05-14T14:12:30.765Z,29.60
2018-05-14T14:15:10.106Z,29.60
2018-05-14T14:17:46.869Z,29.30
2018-05-14T14:20:24.821Z,29.00
2018-05-14T14:23:01.205Z,28.60
2018-05-14T14:25:38.199Z,28.10
2018-05-14T14:28:15.972Z,28.10
2018-05-14T14:30:52.626Z,28.10
2018-05-14T14:33:29.040Z,28.30
2018-05-14T14:36:07.015Z,28.30
2018-05-14T14:38:44.146Z,28.20
2018-05-14T14:41:21.610Z,28.30
2018-05-14T14:43:59.057Z,28.30
2018-05-14T14:46:37.225Z,28.20
2018-05-14T14:49:14.324Z,27.90
2018-05-14T14:51:51.687Z,27.90
2018-05-14T14:54:28.016Z,27.90
2018-05-14T14:57:04.234Z,27.50
2018-05-14T14:59:41.602Z,27.20
2018-05-14T15:02:18.582Z,26.70
2018-05-14T15:04:55.199Z,26.30
2018-05-14T15:07:31.403Z,26.00
2018-05-14T15:10:07.712Z,25.90
2018-05-14T15:12:44.790Z,25.90
2018-05-14T15:15:21.421Z,25.80
2018-05-14T15:17:59.308Z,25.60
2018-05-14T15:20:36.292Z,25.50
2018-05-14T15:23:14.506Z,25.50
2018-05-14T15:25:50.969Z,25.30
2018-05-14T15:28:28.812Z,25.30
2018-05-14T15:31:05.127Z,25.30
2018-05-14T15:33:41.934Z,25.20
2018-05-14T15:36:19.105Z,25.10
2018-05-14T15:38:57.013Z,24.90
2018-05-14T15:41:33.717Z,24.80
2018-05-14T15:44:11.981Z,24.60
2018-05-14T15:46:49.802Z,24.60
2018-05-14T15:49:26.773Z,24.20
2018-05-14T15:52:03.737Z,24.10
2018-05-14T15:54:40.779Z,24.10
2018-05-14T15:57:17.769Z,23.90
2018-05-14T15:59:55.603Z,23.80
2018-05-14T16:02:34.123Z,23.60
2018-05-14T16:05:12.013Z,23.60
2018-05-14T16:07:48.524Z,23.70
2018-05-14T16:10:25.945Z,23.60
2018-05-14T16:13:02.932Z,23.50
2018-05-14T16:15:41.451Z,23.40
2018-05-14T16:18:18.012Z,23.30
2018-05-14T16:20:55.097Z,23.10
2018-05-14T16:23:33.013Z,22.90
2018-05-14T16:26:09.978Z,22.80
2018-05-14T16:28:46.902Z,22.70
2018-05-14T16:31:23.969Z,22.70
2018-05-14T16:34:00.642Z,22.60
2018-05-14T16:36:38.280Z,22.50
2018-05-14T16:39:15.824Z,22.60
2018-05-14T16:41:52.449Z,22.50
2018-05-14T16:44:30.360Z,22.50
2018-05-14T16:47:07.981Z,22.40
2018-05-14T16:49:44.626Z,22.40
2018-05-14T16:52:20.670Z,22.50
2018-05-14T16:54:59.186Z,22.40
2018-05-14T16:57:36.595Z,22.40
2018-05-14T17:00:13.055Z,22.40
2018-05-14T17:02:49.129Z,22.40
2018-05-14T17:05:25.961Z,22.40
2018-05-14T17:08:02.138Z,22.30
2018-05-14T17:10:39.377Z,22.20
2018-05-14T17:13:16.094Z,22.10
2018-05-14T17:15:52.929Z,22.10
2018-05-14T17:18:29.503Z,22.00
2018-05-14T17:21:08.988Z,21.90
2018-05-14T17:23:45.064Z,21.90
2018-05-14T17:26:22.302Z,21.90
2018-05-14T17:28:58.928Z,21.80
2018-05-14T17:31:35.772Z,21.80
2018-05-14T17:34:12.491Z,21.70
2018-05-14T17:36:49.707Z,21.60
2018-05-14T17:39:27.460Z,21.50
2018-05-14T17:42:03.913Z,21.40
2018-05-14T17:44:41.289Z,21.30
2018-05-14T17:47:18.146Z,21.30
2018-05-14T17:49:56.524Z,21.30
2018-05-14T17:52:32.195Z,21.20
2018-05-14T17:55:08.853Z,21.10
2018-05-14T17:57:46.140Z,21.10
2018-05-14T18:00:22.805Z,21.10
2018-05-14T18:02:59.494Z,21.00
2018-05-14T18:05:36.541Z,21.00
2018-05-14T18:08:12.825Z,21.00
2018-05-14T18:10:49.876Z,21.00
2018-05-14T18:13:28.362Z,20.90
2018-05-14T18:16:05.977Z,20.80
2018-05-14T18:18:43.674Z,20.70
2018-05-14T18:21:27.086Z,20.70
2018-05-14T18:24:03.305Z,20.70
2018-05-14T18:26:45.385Z,20.70
2018-05-14T18:29:26.988Z,20.70
2018-05-14T18:32:04.680Z,20.60
2018-05-14T18:34:43.713Z,20.50
2018-05-14T18:37:20.277Z,20.50
2018-05-14T18:39:57.182Z,20.40
2018-05-14T18:42:34.172Z,20.40
2018-05-14T18:45:10.645Z,20.30
2018-05-14T18:47:48.713Z,20.30
2018-05-14T18:50:25.185Z,20.20
2018-05-14T18:53:03.045Z,20.10
2018-05-14T18:55:40.339Z,20.10
2018-05-14T18:58:17.729Z,20.00
2018-05-14T19:00:54.505Z,19.80
2018-05-14T19:03:33.294Z,19.70
2018-05-14T19:06:10.256Z,19.70
2018-05-14T19:08:46.313Z,19.70
2018-05-14T19:11:27.825Z,19.70
2018-05-14T19:14:03.781Z,19.60
2018-05-14T19:16:46.994Z,19.70
2018-05-14T19:19:25.154Z,19.60
2018-05-14T19:22:03.465Z,19.60
2018-05-14T19:24:40.055Z,19.60
2018-05-14T19:27:16.872Z,19.50
2018-05-14T19:29:55.137Z,19.50
2018-05-14T19:32:32.585Z,19.40
2018-05-14T19:35:14.712Z,19.40
2018-05-14T19:37:51.932Z,19.40
2018-05-14T19:40:34.842Z,19.30
2018-05-14T19:43:12.965Z,19.30
2018-05-14T19:45:49.018Z,19.30
2018-05-14T19:48:27.265Z,19.20
2018-05-14T19:51:06.701Z,19.10
2018-05-14T19:53:43.807Z,19.10
2018-05-14T19:56:20.035Z,19.10
2018-05-14T19:58:56.250Z,19.10
2018-05-14T20:01:35.645Z,18.90
2018-05-14T20:04:12.583Z,18.80
2018-05-14T20:06:51.067Z,18.80
2018-05-14T20:09:27.643Z,18.80
2018-05-14T20:12:04.185Z,18.70
2018-05-14T20:14:42.549Z,18.60
2018-05-14T20:17:19.945Z,18.50
2018-05-14T20:19:56.757Z,18.60
2018-05-14T20:22:34.954Z,18.60
2018-05-14T20:25:13.364Z,18.60
2018-05-14T20:27:49.511Z,18.50
2018-05-14T20:30:26.630Z,18.40
2018-05-14T20:33:04.589Z,18.40
2018-05-14T20:35:41.611Z,18.30
2018-05-14T20:38:19.350Z,18.20
2018-05-14T20:40:57.786Z,18.10
2018-05-14T20:43:36.604Z,18.10
2018-05-14T20:46:13.368Z,18.10
2018-05-14T20:48:50.020Z,18.00
2018-05-14T20:51:27.664Z,18.00
2018-05-14T20:54:03.605Z,18.00
2018-05-14T20:56:40.367Z,17.90
2018-05-14T20:59:18.095Z,17.80
2018-05-14T21:01:57.573Z,17.80
2018-05-14T21:04:33.565Z,17.70
2018-05-14T21:07:11.344Z,17.70
2018-05-14T21:09:48.038Z,17.60
2018-05-14T21:12:25.121Z,17.60
2018-05-14T21:15:02.061Z,17.50
2018-05-14T21:17:38.673Z,17.50
2018-05-14T21:20:16.055Z,17.40
2018-05-14T21:22:54.619Z,17.30
2018-05-14T21:25:32.339Z,17.30
2018-05-14T21:28:09.365Z,17.30
2018-05-14T21:30:45.850Z,17.20
2018-05-14T21:33:24.693Z,17.00
2018-05-14T21:36:03.274Z,17.00
2018-05-14T21:38:39.998Z,16.90
2018-05-14T21:41:17.286Z,16.90
2018-05-14T21:43:54.294Z,16.80
2018-05-14T21:46:32.169Z,16.80
2018-05-14T21:49:08.281Z,16.70
2018-05-14T21:51:45.815Z,16.70
2018-05-14T21:54:22.507Z,16.70
2018-05-14T21:56:59.797Z,16.70
2018-05-14T21:59:36.443Z,16.70
2018-05-14T22:02:12.326Z,16.80
2018-05-14T22:04:48.982Z,16.80
2018-05-14T22:07:25.863Z,16.80
2018-05-14T22:10:02.946Z,16.70
2018-05-14T22:12:40.455Z,16.70
2018-05-14T22:15:17.376Z,16.60
2018-05-14T22:17:56.671Z,16.60
2018-05-14T22:20:33.329Z,16.70
2018-05-14T22:23:13.532Z,16.50
2018-05-14T22:25:52.085Z,16.50
2018-05-14T22:28:28.573Z,16.40
2018-05-14T22:31:06.340Z,16.40
2018-05-14T22:33:43.036Z,16.30
2018-05-14T22:36:20.242Z,16.30
2018-05-14T22:38:56.808Z,16.40
2018-05-14T22:41:35.185Z,16.40
2018-05-14T22:44:12.507Z,16.30
2018-05-14T22:46:49.493Z,16.30
2018-05-14T22:49:26.330Z,16.20
2018-05-14T22:52:03.393Z,16.20
2018-05-14T22:54:40.428Z,16.10
2018-05-14T22:57:17.957Z,16.10
2018-05-14T22:59:54.702Z,16.10
2018-05-14T23:02:32.363Z,16.10
2018-05-14T23:05:09.873Z,15.90
2018-05-14T23:07:48.086Z,15.90
2018-05-14T23:10:24.565Z,15.80
2018-05-14T23:13:02.022Z,15.80
2018-05-14T23:15:38.997Z,15.70
2018-05-14T23:18:17.825Z,15.60
2018-05-14T23:20:55.421Z,15.50
2018-05-14T23:23:32.703Z,15.50
2018-05-14T23:26:08.902Z,15.40
2018-05-14T23:28:47.284Z,15.40
2018-05-14T23:31:24.229Z,15.30
2018-05-14T23:34:02.456Z,15.20
2018-05-14T23:36:39.641Z,15.20
2018-05-14T23:39:16.456Z,15.10
2018-05-14T23:41:53.108Z,15.00
2018-05-14T23:44:30.862Z,14.90
2018-05-14T23:47:07.996Z,14.90
2018-05-14T23:49:44.781Z,14.80
2018-05-14T23:52:22.260Z,14.70
2018-05-14T23:54:59.450Z,14.70
2018-05-14T23:57:36.056Z,14.60
